This is the latest recevied weather packets stored in our database for station/object DK6GC-10. If no packets are shown the sender has not sent any weather packets the latest 10 day(s).
| Time | Temp. | Humidity | Pressure | Rain* | Wind** | Luminosity | Snow |
|---|---|---|---|---|---|---|---|
| 1787646620 | 16.67° C | 86% | 1015.1 hPa | - | - | - | - |
| 1787645720 | 16.67° C | 85% | 1014.9 hPa | - | - | - | - |
| 1787644819 | 16.11° C | 85% | 1014.8 hPa | - | - | - | - |
| 1787643919 | 16.11° C | 84% | 1014.7 hPa | - | - | - | - |
| 1787643019 | 16.11° C | 84% | 1014.6 hPa | - | - | - | - |
| 1787642119 | 16.11° C | 82% | 1014.5 hPa | - | - | - | - |
| 1787641219 | 16.67° C | 79% | 1014.3 hPa | - | - | - | - |
| 1787640318 | 16.11° C | 80% | 1014.2 hPa | - | - | - | - |
| 1787639418 | 16.11° C | 82% | 1014.1 hPa | - | - | - | - |
| 1787638517 | 15.56° C | 82% | 1014 hPa | - | - | - | - |
| 1787637622 | 15.56° C | 84% | 1013.9 hPa | - | - | - | - |
| 1787636722 | 15.56° C | 85% | 1013.9 hPa | - | - | - | - |
| 1787635821 | 15.56° C | 82% | 1013.6 hPa | - | - | - | - |
| 1787634921 | 15.56° C | 85% | 1013.4 hPa | - | - | - | - |
| 1787634021 | 15.56° C | 87% | 1013.4 hPa | - | - | - | - |
| 1787633120 | 15.56° C | 84% | 1013.2 hPa | - | - | - | - |
| 1787632220 | 15.56° C | 84% | 1012.9 hPa | - | - | - | - |
| 1787631320 | 15.56° C | 86% | 1012.8 hPa | - | - | - | - |
| 1787630420 | 15° C | 87% | 1012.8 hPa | - | - | - | - |
| 1787629520 | 15.56° C | 87% | 1012.7 hPa | - | - | - | - |
| 1787628620 | 15.56° C | 86% | 1012.6 hPa | - | - | - | - |
| 1787627719 | 16.11° C | 83% | 1012.4 hPa | - | - | - | - |
| 1787626819 | 16.11° C | 72% | 1011.6 hPa | - | - | - | - |
| 1787625919 | 15.56° C | 82% | 1011.4 hPa | - | - | - | - |
| 1787624119 | 15.56° C | 85% | 1011.5 hPa | - | - | - | - |
* Rain since midnight (hover to see other rain measurements)
** Current wind speed in m/s (hover to see current wind gust speed)